Terminal Aerodrome Forecast
Issued by NWS

Home | Current Version | Previous Version | Text Only | Print | Product List | Glossary On
Versions: 1 2 3 4 5 6 7 8 9 10 11 12 13 14 15 16 17 18 19 20 21 22 23 24 25 26
000
FTUS41 KBUF 280245 AAA
TAFIAG
TAF AMD
KIAG 280245Z 2803/2824 21010KT P6SM VCSH OVC080
     FM280700 24009KT P6SM BKN050
     FM280900 25008KT P6SM SCT060
     FM281400 30010KT P6SM SCT250=

USA.gov is the U.S. government's official web portal to all federal, state and local government web resources and services.